Time;durP1;ratioP1;P1;durP2;ratioP2;P2;SDS_P1;SDS_P2;PMS_P1;PMS_P2;Temp;Humidity;BMP_temperature;BMP_pressure;BME280_temperature;BME280_humidity;BME280_pressure;Samples;Min_cycle;Max_cycle;Signal;HPM_P1;HPM_P2
2022/01/01 00:00:45;;;;;;;;;;;;;;;5.12;74.51;101662.06;5074848;28;19916;-78
2022/01/01 00:03:30;;;;;;;;;;;;;;;5.20;73.68;101655.38;5074869;28;19916;-77
2022/01/01 00:06:14;;;;;;;;;;;;;;;5.18;73.20;101642.94;5087303;28;20336;-79
2022/01/01 00:08:59;;;;;;;;;;;;;;;5.25;72.37;101647.31;5071299;28;19916;-78
2022/01/01 00:11:43;;;;;;;;;;;;;;;5.29;73.36;101640.34;5060187;28;19912;-77
2022/01/01 00:14:29;;;;;;;;;;;;;;;5.11;73.26;101642.38;5072283;28;20295;-78
2022/01/01 00:17:13;;;;;;;;;;;;;;;5.18;71.89;101640.25;5053314;28;20381;-78
2022/01/01 00:19:57;;;;;;;;;;;;;;;5.18;72.76;101636.78;5072735;28;19912;-78
2022/01/01 00:22:42;;;;;;;;;;;;;;;5.06;74.29;101639.63;5083197;28;19912;-78
2022/01/01 00:25:27;;;;;;;;;;;;;;;5.18;74.01;101634.84;5083691;28;19912;-79
2022/01/01 00:28:12;;;;;;;;;;;;;;;5.26;72.47;101635.47;5084746;28;19917;-78
2022/01/01 00:30:56;;;;;;;;;;;;;;;5.23;72.49;101630.59;5071054;28;19920;-80
2022/01/01 00:33:41;;;;;;;;;;;;;;;5.43;72.93;101636.97;5076468;28;20392;-78
2022/01/01 00:36:26;;;;;;;;;;;;;;;5.36;70.93;101633.69;5079066;28;19916;-79
2022/01/01 00:39:10;;;;;;;;;;;;;;;5.31;72.75;101628.25;5075984;28;19912;-78
2022/01/01 00:41:54;;;;;;;;;;;;;;;5.17;71.10;101632.44;5080589;28;20369;-79
2022/01/01 00:44:39;;;;;;;;;;;;;;;5.24;73.01;101618.72;5069119;28;20296;-77
2022/01/01 00:47:23;;;;;;;;;;;;;;;5.14;72.67;101632.94;5065337;28;20484;-78
2022/01/01 00:50:08;;;;;;;;;;;;;;;5.05;72.08;101640.69;5072187;28;20396;-79
2022/01/01 00:52:53;;;;;;;;;;;;;;;5.18;70.63;101644.03;5063504;28;19912;-79
2022/01/01 00:55:37;;;;;;;;;;;;;;;5.23;71.21;101644.91;5076050;28;20380;-79
2022/01/01 00:58:21;;;;;;;;;;;;;;;5.08;72.95;101634.78;5085220;28;20296;-78
2022/01/01 01:01:06;;;;;;;;;;;;;;;5.18;72.13;101640.25;5067341;28;20396;-79
2022/01/01 01:03:50;;;;;;;;;;;;;;;5.39;73.31;101641.25;5069987;28;20305;-79
2022/01/01 01:06:35;;;;;;;;;;;;;;;5.34;71.59;101638.50;5078894;28;19920;-78
2022/01/01 01:09:19;;;;;;;;;;;;;;;5.13;72.34;101642.09;5078369;28;19916;-78
2022/01/01 01:12:04;;;;;;;;;;;;;;;4.91;74.30;101627.88;5064184;28;19912;-78
2022/01/01 01:14:49;;;;;;;;;;;;;;;5.10;73.44;101638.03;5069936;28;19912;-78
2022/01/01 01:17:33;;;;;;;;;;;;;;;5.36;74.42;101647.16;5077723;28;19912;-78
2022/01/01 01:20:19;;;;;;;;;;;;;;;5.04;74.69;101639.06;5076141;28;19938;-78
2022/01/01 01:23:04;;;;;;;;;;;;;;;5.00;74.86;101631.75;5080535;28;20373;-78
2022/01/01 01:25:48;;;;;;;;;;;;;;;5.10;73.69;101638.03;5078621;28;19912;-78
2022/01/01 01:28:33;;;;;;;;;;;;;;;5.13;73.25;101636.69;5076129;28;19916;-78
2022/01/01 01:31:18;;;;;;;;;;;;;;;5.12;72.90;101635.91;5080173;28;19912;-78
2022/01/01 01:34:02;;;;;;;;;;;;;;;5.25;72.41;101633.84;5072670;28;19912;-78
2022/01/01 01:36:47;;;;;;;;;;;;;;;5.29;72.67;101629.56;5073509;28;19912;-77
2022/01/01 01:39:31;;;;;;;;;;;;;;;5.24;72.15;101630.31;5087449;28;19917;-78
2022/01/01 01:42:15;;;;;;;;;;;;;;;5.28;71.35;101634.16;5073164;28;19916;-77
2022/01/01 01:45:01;;;;;;;;;;;;;;;5.29;71.20;101640.34;5077993;28;19912;-77
2022/01/01 01:47:47;;;;;;;;;;;;;;;5.15;72.88;101631.88;5082980;28;19916;-79
2022/01/01 01:50:33;;;;;;;;;;;;;;;5.30;71.27;101633.88;5087556;28;20376;-78
2022/01/01 01:53:18;;;;;;;;;;;;;;;5.21;72.83;101638.13;5085515;28;19912;-78
2022/01/01 01:56:02;;;;;;;;;;;;;;;5.02;72.84;101633.13;5076827;28;19912;-78
2022/01/01 01:58:46;;;;;;;;;;;;;;;5.04;73.29;101628.28;5070346;28;20296;-77
2022/01/01 02:01:31;;;;;;;;;;;;;;;5.07;73.48;101633.16;5074298;28;19912;-79
2022/01/01 02:04:16;;;;;;;;;;;;;;;5.08;72.73;101632.06;5073678;28;19920;-78
2022/01/01 02:07:01;;;;;;;;;;;;;;;5.09;71.75;101631.00;5077055;28;19913;-78
2022/01/01 02:09:46;;;;;;;;;;;;;;;5.04;73.66;101633.66;5076718;28;19920;-78
2022/01/01 02:12:33;;;;;;;;;;;;;;;5.02;73.06;101629.59;5074823;28;19912;-78
2022/01/01 02:15:40;;;;;;;;;;;;;;;5.06;71.84;101633.41;5078902;28;19916;-78
2022/01/01 02:18:25;;;;;;;;;;;;;;;5.06;73.30;101631.53;5079228;28;20285;-78
2022/01/01 02:21:10;;;;;;;;;;;;;;;4.98;74.26;101628.47;5077954;28;19913;-78
2022/01/01 02:23:59;;;;;;;;;;;;;;;5.01;73.92;101618.00;5073695;28;19912;-78
2022/01/01 02:26:44;;;;;;;;;;;;;;;4.98;73.72;101613.13;5075699;28;20373;-77
2022/01/01 02:29:28;;;;;;;;;;;;;;;5.08;73.55;101621.28;5079754;28;19916;-78
2022/01/01 02:32:14;;;;;;;;;;;;;;;5.09;72.79;101625.63;5077843;28;19912;-77
2022/01/01 02:34:58;;;;;;;;;;;;;;;5.06;72.93;101628.84;5068722;28;19912;-78
2022/01/01 02:37:43;;;;;;;;;;;;;;;5.40;71.51;101628.56;5077372;28;19912;-78
2022/01/01 02:40:27;;;;;;;;;;;;;;;5.26;71.61;101620.13;5077301;28;19912;-78
2022/01/01 02:43:12;;;;;;;;;;;;;;;5.40;70.89;101617.78;5076616;28;19921;-79
2022/01/01 02:45:56;;;;;;;;;;;;;;;5.20;72.76;101620.31;5078776;28;19912;-78
2022/01/01 02:48:44;;;;;;;;;;;;;;;5.46;70.74;101617.56;5076399;28;19916;-78
2022/01/01 02:51:28;;;;;;;;;;;;;;;5.18;73.04;101614.38;5060411;28;19912;-78
2022/01/01 02:54:13;;;;;;;;;;;;;;;5.18;72.94;101622.47;5066470;28;19912;-78
2022/01/01 02:56:57;;;;;;;;;;;;;;;5.09;73.24;101625.63;5080781;28;20376;-78
2022/01/01 02:59:42;;;;;;;;;;;;;;;5.04;72.72;101625.56;5073933;28;20280;-78
2022/01/01 03:02:26;;;;;;;;;;;;;;;5.02;72.34;101645.78;5075063;28;19916;-78
2022/01/01 03:05:10;;;;;;;;;;;;;;;5.10;72.72;101638.03;5077981;28;20297;-77
2022/01/01 03:07:55;;;;;;;;;;;;;;;5.03;72.45;101628.53;5079964;28;19912;-78
2022/01/01 03:10:40;;;;;;;;;;;;;;;4.84;74.18;101622.69;5065027;28;19921;-78
2022/01/01 03:13:24;;;;;;;;;;;;;;;4.93;73.93;101633.81;5077952;28;19912;-77
2022/01/01 03:16:09;;;;;;;;;;;;;;;4.90;74.53;101627.06;5075881;28;19912;-78
2022/01/01 03:18:53;;;;;;;;;;;;;;;4.89;74.29;101630.81;5064256;28;19916;-77
2022/01/01 03:21:39;;;;;;;;;;;;;;;4.84;75.00;101625.38;5079673;28;20376;-77
2022/01/01 03:24:24;;;;;;;;;;;;;;;5.03;75.03;101626.63;5075309;28;19912;-77
2022/01/01 03:27:08;;;;;;;;;;;;;;;5.08;74.37;101631.25;5074009;28;19912;-77
2022/01/01 03:29:53;;;;;;;;;;;;;;;4.88;73.96;101629.19;5089829;28;19920;-77
2022/01/01 03:32:37;;;;;;;;;;;;;;;4.93;74.67;101621.16;5080522;28;19934;-77
2022/01/01 03:35:21;;;;;;;;;;;;;;;5.04;74.71;101617.50;5080884;28;19912;-78
2022/01/01 03:38:06;;;;;;;;;;;;;;;4.88;73.63;101612.22;5081456;28;19921;-78
2022/01/01 03:40:50;;;;;;;;;;;;;;;4.86;74.87;101611.66;5088172;28;20371;-77
2022/01/01 03:43:34;;;;;;;;;;;;;;;4.72;73.44;101605.88;5080444;28;19920;-78
2022/01/01 03:46:19;;;;;;;;;;;;;;;4.81;74.73;101608.94;5084059;28;19912;-78
2022/01/01 03:49:03;;;;;;;;;;;;;;;4.84;73.57;101613.78;5070871;28;19916;-77
2022/01/01 03:51:47;;;;;;;;;;;;;;;4.85;73.23;101623.50;5077962;28;19913;-77
2022/01/01 03:54:32;;;;;;;;;;;;;;;4.95;74.95;101619.03;5065663;28;20455;-78
2022/01/01 03:57:18;;;;;;;;;;;;;;;5.00;72.73;101616.38;5072707;28;20292;-77
2022/01/01 04:00:07;;;;;;;;;;;;;;;4.94;73.26;101621.97;5075052;28;19912;-77
2022/01/01 04:03:04;;;;;;;;;;;;;;;4.89;74.64;101616.53;5051978;28;19913;-78
2022/01/01 04:05:49;;;;;;;;;;;;;;;4.85;74.09;101618.94;5076678;28;19912;-78
2022/01/01 04:08:33;;;;;;;;;;;;;;;4.87;73.29;101622.19;5071406;28;19916;-77
2022/01/01 04:11:17;;;;;;;;;;;;;;;4.87;73.88;101624.91;5071594;28;19916;-78
2022/01/01 04:14:02;;;;;;;;;;;;;;;4.85;74.01;101620.81;5073453;28;20284;-77
2022/01/01 04:16:47;;;;;;;;;;;;;;;4.84;74.40;101625.38;5075805;28;20404;-77
2022/01/01 04:19:39;;;;;;;;;;;;;;;4.94;75.19;101625.47;5084356;28;19916;-77
2022/01/01 04:22:24;;;;;;;;;;;;;;;4.96;76.23;101631.44;5091552;28;19913;-77
2022/01/01 04:25:08;;;;;;;;;;;;;;;5.06;75.29;101634.22;5073434;28;19912;-79
2022/01/01 04:27:53;;;;;;;;;;;;;;;5.08;74.85;101632.06;5072997;28;21663;-77
2022/01/01 04:30:38;;;;;;;;;;;;;;;4.98;73.45;101625.78;5082804;28;19921;-78
2022/01/01 04:33:22;;;;;;;;;;;;;;;4.97;74.29;101633.06;5069688;28;20384;-77
2022/01/01 04:36:06;;;;;;;;;;;;;;;5.00;73.08;101646.03;5092369;28;19916;-77
2022/01/01 04:38:51;;;;;;;;;;;;;;;4.96;72.39;101634.13;5078057;28;19913;-77
2022/01/01 04:41:35;;;;;;;;;;;;;;;4.87;73.46;101635.69;5076839;28;19912;-78
2022/01/01 04:44:20;;;;;;;;;;;;;;;4.89;72.01;101635.41;5068489;28;19912;-77
2022/01/01 04:47:04;;;;;;;;;;;;;;;4.86;72.66;101633.22;5067269;28;19912;-77
2022/01/01 04:49:49;;;;;;;;;;;;;;;4.90;72.55;101631.63;5073677;28;19924;-77
2022/01/01 04:52:34;;;;;;;;;;;;;;;4.86;72.82;101641.31;5055306;28;19912;-77
2022/01/01 04:55:18;;;;;;;;;;;;;;;4.97;73.71;101641.16;5086912;28;19912;-77
2022/01/01 04:58:03;;;;;;;;;;;;;;;5.01;72.73;101636.88;5082728;28;19912;-77
2022/01/01 05:00:47;;;;;;;;;;;;;;;4.78;74.22;101647.94;5065675;28;19912;-77
2022/01/01 05:03:31;;;;;;;;;;;;;;;4.94;72.55;101652.44;5070863;28;19920;-77
2022/01/01 05:06:16;;;;;;;;;;;;;;;4.95;72.89;101651.38;5063616;28;19917;-78
2022/01/01 05:09:00;;;;;;;;;;;;;;;4.95;73.91;101653.25;5059914;28;19917;-78
2022/01/01 05:11:46;;;;;;;;;;;;;;;4.86;74.75;101644.00;5051475;28;19916;-77
2022/01/01 05:14:33;;;;;;;;;;;;;;;4.78;73.96;101650.66;5067392;28;20388;-77
2022/01/01 05:17:18;;;;;;;;;;;;;;;4.85;72.52;101634.28;5071979;28;19913;-77
2022/01/01 05:20:03;;;;;;;;;;;;;;;4.71;74.01;101644.66;5066948;28;19917;-78
2022/01/01 05:22:49;;;;;;;;;;;;;;;4.70;74.44;101640.34;5062513;28;19912;-78
2022/01/01 05:25:33;;;;;;;;;;;;;;;4.73;73.57;101642.50;5067842;28;19916;-77
2022/01/01 05:28:18;;;;;;;;;;;;;;;4.77;75.75;101643.66;5065266;28;19912;-77
2022/01/01 05:31:02;;;;;;;;;;;;;;;4.78;75.85;101636.34;5073973;28;19912;-79
2022/01/01 05:33:47;;;;;;;;;;;;;;;5.04;73.12;101640.94;5070160;28;19916;-77
2022/01/01 05:36:32;;;;;;;;;;;;;;;5.06;71.75;101633.41;5055529;28;19916;-78
2022/01/01 05:39:16;;;;;;;;;;;;;;;4.80;73.23;101637.75;5055854;28;20289;-78
2022/01/01 05:42:00;;;;;;;;;;;;;;;4.76;73.46;101647.41;5071574;28;19912;-78
2022/01/01 05:44:45;;;;;;;;;;;;;;;4.74;75.66;101649.53;5059569;28;19912;-78
2022/01/01 05:47:30;;;;;;;;;;;;;;;4.78;74.00;101649.81;5055671;28;19912;-78
2022/01/01 05:50:14;;;;;;;;;;;;;;;4.70;73.61;101661.88;5062945;28;19916;-78
2022/01/01 05:52:59;;;;;;;;;;;;;;;4.71;73.62;101656.25;5067354;28;19913;-77
2022/01/01 05:55:43;;;;;;;;;;;;;;;4.62;74.14;101659.66;5058637;28;19913;-77
2022/01/01 05:58:27;;;;;;;;;;;;;;;4.61;73.21;101645.38;5072844;28;19913;-77
2022/01/01 06:01:12;;;;;;;;;;;;;;;4.74;72.24;101653.03;5065605;28;19912;-77
2022/01/01 06:03:56;;;;;;;;;;;;;;;4.62;72.86;101656.97;5066420;28;19916;-78
2022/01/01 06:06:40;;;;;;;;;;;;;;;4.65;72.65;101653.75;5070232;28;19912;-77
2022/01/01 06:09:25;;;;;;;;;;;;;;;4.77;71.60;101664.38;5062753;28;19917;-77
2022/01/01 06:12:09;;;;;;;;;;;;;;;4.64;72.47;101654.81;5069593;28;20404;-77
2022/01/01 06:14:53;;;;;;;;;;;;;;;4.64;73.04;101649.41;5079930;28;20296;-77
2022/01/01 06:17:38;;;;;;;;;;;;;;;4.70;73.63;101653.81;5064508;28;19912;-78
2022/01/01 06:20:22;;;;;;;;;;;;;;;4.61;73.53;101664.22;5070076;28;19912;-77
2022/01/01 06:23:07;;;;;;;;;;;;;;;4.69;72.53;101657.56;5071458;28;19912;-77
2022/01/01 06:25:52;;;;;;;;;;;;;;;4.59;73.02;101668.22;5084600;28;20288;-78
2022/01/01 06:28:36;;;;;;;;;;;;;;;4.57;73.95;101686.53;5061437;28;19928;-78
2022/01/01 06:31:20;;;;;;;;;;;;;;;4.56;73.76;101690.28;5082850;28;20369;-77
2022/01/01 06:34:05;;;;;;;;;;;;;;;4.78;75.79;101682.16;5071904;28;19912;-77
2022/01/01 06:36:51;;;;;;;;;;;;;;;4.73;75.03;101693.69;5074045;28;19912;-79
2022/01/01 06:39:35;;;;;;;;;;;;;;;4.78;74.06;101693.75;5074559;28;19913;-78
2022/01/01 06:42:20;;;;;;;;;;;;;;;4.86;73.93;101695.19;5077961;28;19912;-78
2022/01/01 06:45:04;;;;;;;;;;;;;;;4.83;73.09;101699.19;5071235;28;19912;-78
2022/01/01 06:47:49;;;;;;;;;;;;;;;4.88;72.00;101703.81;5076133;28;19921;-77
2022/01/01 06:50:34;;;;;;;;;;;;;;;4.73;74.25;101709.88;5069364;28;20300;-77
2022/01/01 06:53:18;;;;;;;;;;;;;;;4.79;75.48;101716.94;5075916;28;19912;-77
2022/01/01 06:56:05;;;;;;;;;;;;;;;4.84;75.39;101724.25;5089235;28;19924;-78
2022/01/01 06:58:50;;;;;;;;;;;;;;;4.89;74.44;101717.06;5078089;28;20400;-77
2022/01/01 07:01:34;;;;;;;;;;;;;;;4.70;74.79;101726.53;5071021;28;19913;-77
2022/01/01 07:04:19;;;;;;;;;;;;;;;4.76;74.40;101730.13;5083091;28;19913;-77
2022/01/01 07:07:03;;;;;;;;;;;;;;;4.78;74.56;101730.66;5063156;28;20392;-78
2022/01/01 07:09:48;;;;;;;;;;;;;;;4.73;74.76;101739.50;5072197;28;19916;-77
2022/01/01 07:12:33;;;;;;;;;;;;;;;4.68;75.08;101744.81;5070688;28;19920;-77
2022/01/01 07:15:17;;;;;;;;;;;;;;;4.69;76.49;101749.16;5073701;28;19912;-77
2022/01/01 07:18:02;;;;;;;;;;;;;;;4.68;74.23;101742.94;5078529;28;19913;-77
2022/01/01 07:20:46;;;;;;;;;;;;;;;4.76;73.57;101747.09;5079704;28;19916;-77
2022/01/01 07:23:31;;;;;;;;;;;;;;;4.69;74.51;101759.94;5084269;28;19908;-77
2022/01/01 07:26:15;;;;;;;;;;;;;;;4.90;75.63;101761.81;5066917;28;20392;-77
2022/01/01 07:29:00;;;;;;;;;;;;;;;4.60;76.17;101773.03;5070373;28;19925;-77
2022/01/01 07:31:44;;;;;;;;;;;;;;;4.81;76.71;101775.97;5067811;28;19912;-76
2022/01/01 07:34:28;;;;;;;;;;;;;;;4.84;76.06;101780.84;5078362;28;19912;-78
2022/01/01 07:37:13;;;;;;;;;;;;;;;4.72;75.68;101778.31;5067376;28;19912;-77
2022/01/01 07:39:57;;;;;;;;;;;;;;;4.72;74.79;101776.41;5077590;28;19913;-78
2022/01/01 07:42:42;;;;;;;;;;;;;;;4.74;73.83;101778.84;5072637;28;20300;-78
2022/01/01 07:45:27;;;;;;;;;;;;;;;4.66;74.90;101776.59;5075004;28;19916;-77
2022/01/01 07:48:12;;;;;;;;;;;;;;;4.59;75.48;101792.13;5077119;28;19912;-78
2022/01/01 07:50:56;;;;;;;;;;;;;;;4.78;76.79;101804.22;5068693;28;19924;-77
2022/01/01 07:53:40;;;;;;;;;;;;;;;4.77;77.00;101810.69;5067813;28;19916;-78
2022/01/01 07:56:25;;;;;;;;;;;;;;;4.89;75.29;101816.75;5069432;28;19911;-77
2022/01/01 07:59:09;;;;;;;;;;;;;;;4.90;75.40;101821.09;5070049;28;19916;-78
2022/01/01 08:01:54;;;;;;;;;;;;;;;4.67;75.45;101815.94;5066716;28;19913;-77
2022/01/01 08:04:38;;;;;;;;;;;;;;;4.71;76.03;101822.47;5066373;28;19916;-78
2022/01/01 08:07:22;;;;;;;;;;;;;;;4.86;76.35;101819.97;5067743;28;19917;-76
2022/01/01 08:10:07;;;;;;;;;;;;;;;4.78;77.88;101812.31;5076089;28;19920;-77
2022/01/01 08:12:52;;;;;;;;;;;;;;;4.63;76.27;101821.00;5070398;28;19931;-77
2022/01/01 08:15:36;;;;;;;;;;;;;;;4.43;76.90;101822.59;5084944;28;19912;-76
2022/01/01 08:18:21;;;;;;;;;;;;;;;4.46;76.21;101822.09;5074458;28;19912;-77
2022/01/01 08:21:06;;;;;;;;;;;;;;;4.21;76.50;101822.53;5072816;28;20285;-76
2022/01/01 08:23:50;;;;;;;;;;;;;;;4.13;76.63;101826.44;5071373;28;19912;-77
2022/01/01 08:26:34;;;;;;;;;;;;;;;4.19;75.75;101822.78;5076751;28;19912;-76
2022/01/01 08:29:19;;;;;;;;;;;;;;;4.49;76.80;101821.59;5071366;28;19924;-76
2022/01/01 08:32:03;;;;;;;;;;;;;;;4.41;74.29;101822.84;5074462;28;20384;-76
2022/01/01 08:34:48;;;;;;;;;;;;;;;4.41;76.00;101816.66;5071960;28;20304;-76
2022/01/01 08:37:32;;;;;;;;;;;;;;;4.58;76.03;101815.53;5065349;28;19912;-77
2022/01/01 08:40:16;;;;;;;;;;;;;;;4.32;75.10;101813.53;5077415;28;19912;-77
2022/01/01 08:43:01;;;;;;;;;;;;;;;4.14;73.93;101813.81;5072737;28;19916;-79
2022/01/01 08:45:45;;;;;;;;;;;;;;;4.28;76.04;101813.22;5061860;28;19912;-80
2022/01/01 08:48:30;;;;;;;;;;;;;;;4.37;73.85;101815.53;5054797;28;19924;-79
2022/01/01 08:51:18;;;;;;;;;;;;;;;3.77;77.82;101808.91;5066577;28;19921;-79
2022/01/01 08:54:03;;;;;;;;;;;;;;;3.68;77.93;101804.97;5083363;28;19912;-81
2022/01/01 08:56:48;;;;;;;;;;;;;;;4.52;78.76;101810.34;5078073;28;19916;-82
2022/01/01 08:59:32;;;;;;;;;;;;;;;3.59;78.22;101802.94;5076205;28;20380;-75
2022/01/01 09:02:16;;;;;;;;;;;;;;;3.73;78.71;101804.25;5082904;28;19912;-83
2022/01/01 09:05:01;;;;;;;;;;;;;;;3.49;80.69;101802.75;5063841;28;20292;-77
2022/01/01 09:07:46;;;;;;;;;;;;;;;3.66;79.99;101799.00;5073221;28;19916;-77
2022/01/01 09:10:30;;;;;;;;;;;;;;;3.85;80.75;101802.31;5073104;28;19916;-75
2022/01/01 09:13:15;;;;;;;;;;;;;;;4.02;77.07;101803.13;5060463;28;19920;-76
2022/01/01 09:16:00;;;;;;;;;;;;;;;4.24;78.36;101808.59;5067036;28;19912;-76
2022/01/01 09:18:45;;;;;;;;;;;;;;;4.27;77.91;101821.53;5071906;28;19920;-76
2022/01/01 09:21:29;;;;;;;;;;;;;;;4.63;75.40;101814.78;5063211;28;19913;-75
2022/01/01 09:24:14;;;;;;;;;;;;;;;4.78;75.07;101817.69;5071799;28;19913;-76
2022/01/01 09:26:58;;;;;;;;;;;;;;;4.36;76.58;101825.47;5064217;28;19916;-76
2022/01/01 09:29:42;;;;;;;;;;;;;;;4.64;75.50;101835.28;5071329;28;19916;-76
2022/01/01 09:32:27;;;;;;;;;;;;;;;4.64;74.64;101828.03;5072032;28;19912;-76
2022/01/01 09:35:13;;;;;;;;;;;;;;;4.63;74.18;101831.78;5065354;28;19912;-76
2022/01/01 09:37:57;;;;;;;;;;;;;;;4.24;75.59;101840.88;5073963;28;19920;-75
2022/01/01 09:40:42;;;;;;;;;;;;;;;4.24;75.17;101844.41;5058173;28;19912;-76
2022/01/01 09:43:28;;;;;;;;;;;;;;;4.07;76.26;101846.25;5070397;28;20304;-76
2022/01/01 09:46:13;;;;;;;;;;;;;;;4.29;76.79;101849.03;5064633;28;19912;-75
2022/01/01 09:48:58;;;;;;;;;;;;;;;5.05;74.09;101848.25;5067803;28;19917;-75
2022/01/01 09:51:43;;;;;;;;;;;;;;;4.83;74.93;101847.41;5073665;28;19916;-75
2022/01/01 09:54:30;;;;;;;;;;;;;;;4.49;76.01;101849.34;5075991;28;19916;-75
2022/01/01 09:57:15;;;;;;;;;;;;;;;4.83;73.69;101836.63;5069984;28;19920;-75
2022/01/01 09:59:59;;;;;;;;;;;;;;;4.77;73.76;101843.03;5074506;28;19913;-76
2022/01/01 10:02:44;;;;;;;;;;;;;;;4.73;74.75;101833.78;5066935;28;19912;-76
2022/01/01 10:05:28;;;;;;;;;;;;;;;4.59;74.81;101835.22;5064954;28;20392;-75
2022/01/01 10:08:22;;;;;;;;;;;;;;;5.05;74.76;101845.53;5073282;28;19912;-76
2022/01/01 10:11:08;;;;;;;;;;;;;;;5.41;72.71;101838.69;5090917;28;19916;-76
2022/01/01 10:13:52;;;;;;;;;;;;;;;5.47;72.63;101836.88;5074578;28;19912;-76
2022/01/01 10:16:41;;;;;;;;;;;;;;;4.85;75.57;101834.50;5065577;28;19916;-76
2022/01/01 10:19:29;;;;;;;;;;;;;;;4.94;74.02;101826.78;5069738;28;19913;-76
2022/01/01 10:22:16;;;;;;;;;;;;;;;4.99;75.29;101824.97;5072129;28;19912;-75
2022/01/01 10:28:21;;;;;;;;;;;;;;;5.07;75.58;101824.56;5028769;28;19916;-77
2022/01/01 10:31:08;;;;;;;;;;;;;;;5.18;75.65;101831.69;5077567;28;19916;-75
2022/01/01 10:33:54;;;;;;;;;;;;;;;4.92;77.38;101832.47;5065046;28;19913;-76
2022/01/01 10:36:39;;;;;;;;;;;;;;;5.14;76.20;101833.25;5066423;28;19913;-75
2022/01/01 10:39:24;;;;;;;;;;;;;;;5.43;75.75;101822.25;5073339;28;19913;-74
2022/01/01 10:42:12;;;;;;;;;;;;;;;5.47;74.69;101818.81;5075764;28;20312;-75
2022/01/01 10:44:57;;;;;;;;;;;;;;;5.44;74.91;101822.00;5070640;28;19912;-75
2022/01/01 10:47:42;;;;;;;;;;;;;;;5.75;73.72;101823.09;5069552;28;19913;-75
2022/01/01 10:50:34;;;;;;;;;;;;;;;5.62;73.82;101826.22;5077904;28;19917;-76
2022/01/01 10:53:24;;;;;;;;;;;;;;;5.49;75.91;101824.75;5068683;28;19912;-76
2022/01/01 10:56:19;;;;;;;;;;;;;;;5.78;74.21;101822.63;5074480;28;19916;-77
2022/01/01 10:59:03;;;;;;;;;;;;;;;5.91;74.11;101816.81;5076447;28;19912;-77
2022/01/01 11:01:55;;;;;;;;;;;;;;;6.08;73.99;101823.97;5070934;28;19915;-76
2022/01/01 11:04:39;;;;;;;;;;;;;;;5.81;75.06;101819.41;5086168;28;19912;-76
2022/01/01 11:07:24;;;;;;;;;;;;;;;5.50;76.76;101815.59;5075202;28;19912;-76
2022/01/01 11:10:09;;;;;;;;;;;;;;;5.40;77.17;101810.09;5070109;28;19920;-76
2022/01/01 11:12:54;;;;;;;;;;;;;;;5.65;78.00;101811.41;5072072;28;19923;-78
2022/01/01 11:15:39;;;;;;;;;;;;;;;5.79;76.26;101809.94;5070793;28;19912;-77
2022/01/01 11:18:24;;;;;;;;;;;;;;;5.80;76.85;101820.47;5073043;28;19912;-75
2022/01/01 11:21:09;;;;;;;;;;;;;;;5.69;76.56;101810.63;5075394;28;19916;-75
2022/01/01 11:23:54;;;;;;;;;;;;;;;5.90;76.77;101806.25;5071696;28;19912;-75
2022/01/01 11:26:38;;;;;;;;;;;;;;;5.76;76.32;101803.16;5082222;28;19912;-75
2022/01/01 11:29:22;;;;;;;;;;;;;;;6.00;76.48;101807.16;5074516;28;19912;-75
2022/01/01 11:32:08;;;;;;;;;;;;;;;5.84;76.56;101805.38;5073767;28;19912;-75
2022/01/01 11:34:54;;;;;;;;;;;;;;;6.16;76.33;101801.88;5084113;28;19912;-75
2022/01/01 11:38:05;;;;;;;;;;;;;;;6.33;75.82;101803.38;5066438;28;19917;-75
2022/01/01 11:40:53;;;;;;;;;;;;;;;6.36;75.51;101802.03;5074833;28;19916;-75
2022/01/01 11:43:43;;;;;;;;;;;;;;;6.62;75.00;101801.09;5070219;28;19912;-75
2022/01/01 11:46:33;;;;;;;;;;;;;;;6.81;75.14;101802.28;5078282;28;19912;-74
2022/01/01 11:49:24;;;;;;;;;;;;;;;6.75;74.85;101797.13;5075462;28;20288;-75
2022/01/01 11:52:09;;;;;;;;;;;;;;;6.75;75.40;101789.84;5071592;28;19921;-75
2022/01/01 11:55:00;;;;;;;;;;;;;;;6.80;75.03;101787.16;5072386;28;19913;-75
2022/01/01 11:57:59;;;;;;;;;;;;;;;7.29;73.36;101774.06;5072322;28;19912;-74
2022/01/01 12:00:55;;;;;;;;;;;;;;;7.60;71.41;101771.41;5046233;28;19912;-76
2022/01/01 12:03:50;;;;;;;;;;;;;;;7.31;72.55;101771.09;5071463;28;19916;-75
2022/01/01 12:06:38;;;;;;;;;;;;;;;7.12;73.86;101761.84;5075770;28;19912;-75
2022/01/01 12:09:23;;;;;;;;;;;;;;;7.14;74.28;101762.41;5079369;28;20376;-75
2022/01/01 12:12:07;;;;;;;;;;;;;;;6.85;75.67;101762.84;5084772;28;19916;-75
2022/01/01 12:14:52;;;;;;;;;;;;;;;6.83;76.68;101765.00;5080183;28;19912;-75
2022/01/01 12:17:43;;;;;;;;;;;;;;;7.38;75.13;101754.59;5064794;28;20320;-75
2022/01/01 12:20:31;;;;;;;;;;;;;;;7.62;73.27;101744.88;5063638;28;19912;-75
2022/01/01 12:23:17;;;;;;;;;;;;;;;7.82;73.44;101746.78;5070489;28;19916;-75
2022/01/01 12:26:09;;;;;;;;;;;;;;;8.00;72.70;101735.41;5080733;28;19912;-74
2022/01/01 12:29:00;;;;;;;;;;;;;;;8.29;71.21;101733.72;5082193;28;20327;-74
2022/01/01 12:31:57;;;;;;;;;;;;;;;7.87;72.23;101736.78;5069678;28;19920;-75
2022/01/01 12:35:02;;;;;;;;;;;;;;;7.95;71.60;101743.53;5079023;28;19912;-75
2022/01/01 12:37:49;;;;;;;;;;;;;;;7.39;74.22;101735.41;5063648;28;20324;-75
2022/01/01 12:40:34;;;;;;;;;;;;;;;7.15;74.64;101729.69;5056089;28;19913;-74
2022/01/01 12:43:20;;;;;;;;;;;;;;;7.41;73.40;101727.84;5066812;28;19912;-75
2022/01/01 12:46:05;;;;;;;;;;;;;;;7.31;73.99;101723.19;5064890;28;20376;-75
2022/01/01 12:48:50;;;;;;;;;;;;;;;7.32;73.44;101724.00;5073441;28;19916;-75
2022/01/01 12:51:38;;;;;;;;;;;;;;;7.05;74.31;101718.03;5070339;28;19917;-75
2022/01/01 12:54:26;;;;;;;;;;;;;;;6.95;75.68;101712.59;5066129;28;19912;-75
2022/01/01 12:57:11;;;;;;;;;;;;;;;6.96;75.61;101711.53;5078252;28;19912;-75
2022/01/01 12:59:55;;;;;;;;;;;;;;;6.78;76.86;101716.31;5075530;28;19912;-75
2022/01/01 13:02:40;;;;;;;;;;;;;;;6.58;76.91;101716.25;5058455;28;19921;-75
2022/01/01 13:05:24;;;;;;;;;;;;;;;6.56;77.57;101712.97;5073399;28;19912;-74
2022/01/01 13:08:09;;;;;;;;;;;;;;;6.53;77.10;101716.22;5070858;28;19912;-75
2022/01/01 13:10:54;;;;;;;;;;;;;;;6.55;77.40;101700.56;5064136;28;19920;-75
2022/01/01 13:13:38;;;;;;;;;;;;;;;6.43;78.13;101708.88;5078092;28;19912;-75
2022/01/01 13:16:23;;;;;;;;;;;;;;;6.45;78.00;101704.00;5078253;28;19912;-76
2022/01/01 13:19:08;;;;;;;;;;;;;;;6.44;78.74;101698.91;5053058;28;19912;-76
2022/01/01 13:21:52;;;;;;;;;;;;;;;6.58;77.44;101702.72;5069245;28;19920;-76
2022/01/01 13:24:37;;;;;;;;;;;;;;;6.60;77.97;101697.06;5075059;28;19912;-76
2022/01/01 13:27:28;;;;;;;;;;;;;;;6.55;77.55;101697.88;5065221;28;19911;-76
2022/01/01 13:30:12;;;;;;;;;;;;;;;6.50;77.14;101705.97;5078769;28;19916;-75
2022/01/01 13:32:57;;;;;;;;;;;;;;;6.53;77.43;101701.91;5073378;28;19913;-75
2022/01/01 13:35:49;;;;;;;;;;;;;;;6.59;77.20;101693.56;5084590;28;19912;-76
2022/01/01 13:38:35;;;;;;;;;;;;;;;6.41;78.06;101692.13;5073410;28;19912;-76
2022/01/01 13:41:19;;;;;;;;;;;;;;;6.51;78.39;101691.34;5085059;28;19920;-77
2022/01/01 13:44:19;;;;;;;;;;;;;;;6.37;78.70;101695.59;5069836;28;19913;-77
2022/01/01 13:47:05;;;;;;;;;;;;;;;6.29;79.37;101688.03;5071128;28;19912;-77
2022/01/01 13:49:50;;;;;;;;;;;;;;;5.83;80.27;101695.00;5071052;28;19916;-81
2022/01/01 13:52:36;;;;;;;;;;;;;;;6.15;81.97;101698.47;5074707;28;19920;-78
2022/01/01 13:55:24;;;;;;;;;;;;;;;6.41;82.59;101697.53;5077134;28;19912;-77
2022/01/01 13:58:09;;;;;;;;;;;;;;;6.60;82.29;101700.59;5075192;28;19912;-78
2022/01/01 14:00:55;;;;;;;;;;;;;;;6.72;81.90;101700.34;5072643;28;19912;-78
2022/01/01 14:03:41;;;;;;;;;;;;;;;6.81;80.58;101699.56;5084872;28;19946;-78
2022/01/01 14:06:27;;;;;;;;;;;;;;;6.96;80.60;101698.00;5065790;28;19912;-78
2022/01/01 14:09:11;;;;;;;;;;;;;;;7.10;80.08;101697.22;5073238;28;19912;-78
2022/01/01 14:11:56;;;;;;;;;;;;;;;7.19;78.87;101697.50;5079529;28;19916;-77
2022/01/01 14:14:44;;;;;;;;;;;;;;;7.28;78.90;101698.59;5073801;28;19916;-77
2022/01/01 14:17:47;;;;;;;;;;;;;;;7.37;78.96;101698.84;5055096;28;19913;-77
2022/01/01 14:20:47;;;;;;;;;;;;;;;7.43;78.67;101704.00;5067235;28;20296;-78
2022/01/01 14:23:33;;;;;;;;;;;;;;;7.54;78.04;101705.63;5087220;28;19916;-78
2022/01/01 14:26:20;;;;;;;;;;;;;;;7.60;76.09;101707.28;5090620;28;19917;-77